createdAt,value
2022-08-27T00:02:18.163Z,22.92
2022-08-27T00:04:47.148Z,22.92
2022-08-27T00:07:16.596Z,22.91
2022-08-27T00:09:46.308Z,22.91
2022-08-27T00:12:14.706Z,22.91
2022-08-27T00:14:43.000Z,22.90
2022-08-27T00:17:11.801Z,22.89
2022-08-27T00:19:41.239Z,22.88
2022-08-27T00:22:10.940Z,22.88
2022-08-27T00:24:42.075Z,22.88
2022-08-27T00:27:19.320Z,22.86
2022-08-27T00:29:48.198Z,22.84
2022-08-27T00:32:17.559Z,22.83
2022-08-27T00:34:45.994Z,22.81
2022-08-27T00:37:14.536Z,22.83
2022-08-27T00:39:42.940Z,22.82
2022-08-27T00:42:11.618Z,22.80
2022-08-27T00:44:41.269Z,22.79
2022-08-27T00:47:15.346Z,22.76
2022-08-27T00:49:48.355Z,22.77
2022-08-27T00:52:24.067Z,22.76
2022-08-27T00:54:58.595Z,22.76
2022-08-27T00:57:27.829Z,22.77
2022-08-27T00:59:58.106Z,22.77
2022-08-27T01:02:30.642Z,22.77
2022-08-27T01:05:03.837Z,22.75
2022-08-27T01:07:36.470Z,22.75
2022-08-27T01:10:08.469Z,22.75
2022-08-27T01:12:37.764Z,22.75
2022-08-27T01:15:12.907Z,22.76
2022-08-27T01:17:44.905Z,22.76
2022-08-27T01:20:20.485Z,22.76
2022-08-27T01:23:00.472Z,22.75
2022-08-27T01:25:31.101Z,22.74
2022-08-27T01:28:02.850Z,22.73
2022-08-27T01:30:32.357Z,22.73
2022-08-27T01:33:00.638Z,22.73
2022-08-27T01:35:29.074Z,22.74
2022-08-27T01:37:57.441Z,22.73
2022-08-27T01:40:25.858Z,22.72
2022-08-27T01:42:58.107Z,22.70
2022-08-27T01:45:31.407Z,22.71
2022-08-27T01:48:00.531Z,22.71
2022-08-27T01:50:32.299Z,22.70
2022-08-27T01:53:05.537Z,22.68
2022-08-27T01:55:33.936Z,22.67
2022-08-27T01:58:04.169Z,22.66
2022-08-27T02:00:36.777Z,22.66
2022-08-27T02:03:07.509Z,22.66
2022-08-27T02:05:44.497Z,22.66
2022-08-27T02:08:15.956Z,22.66
2022-08-27T02:10:45.861Z,22.65
2022-08-27T02:13:15.757Z,22.65
2022-08-27T02:15:48.362Z,22.65
2022-08-27T02:18:17.633Z,22.65
2022-08-27T02:20:48.486Z,22.65
2022-08-27T02:23:18.198Z,22.63
2022-08-27T02:25:47.739Z,22.63
2022-08-27T02:28:17.467Z,22.62
2022-08-27T02:30:46.092Z,22.62
2022-08-27T02:33:14.753Z,22.61
2022-08-27T02:35:44.375Z,22.58
2022-08-27T02:38:14.030Z,22.60
2022-08-27T02:40:42.526Z,22.57
2022-08-27T02:43:15.845Z,22.57
2022-08-27T02:45:46.145Z,22.54
2022-08-27T02:48:14.613Z,22.53
2022-08-27T02:50:43.649Z,22.53
2022-08-27T02:53:12.016Z,22.48
2022-08-27T02:55:40.756Z,22.50
2022-08-27T02:58:09.524Z,22.49
2022-08-27T03:00:38.044Z,22.47
2022-08-27T03:03:07.859Z,22.47
2022-08-27T03:05:36.166Z,22.46
2022-08-27T03:08:05.419Z,22.44
2022-08-27T03:10:34.652Z,22.44
2022-08-27T03:13:03.120Z,22.41
2022-08-27T03:15:31.480Z,22.41
2022-08-27T03:18:17.334Z,22.39
2022-08-27T03:20:50.456Z,22.35
2022-08-27T03:23:21.535Z,22.35
2022-08-27T03:25:54.211Z,22.32
2022-08-27T03:28:25.894Z,22.30
2022-08-27T03:30:58.526Z,22.27
2022-08-27T03:33:39.545Z,22.23
2022-08-27T03:36:10.627Z,22.23
2022-08-27T03:38:39.576Z,22.21
2022-08-27T03:41:08.064Z,22.19
2022-08-27T03:43:36.431Z,22.17
2022-08-27T03:46:05.077Z,22.16
2022-08-27T03:49:22.492Z,22.12
2022-08-27T03:51:54.475Z,22.11
2022-08-27T03:54:22.931Z,22.10
2022-08-27T03:56:51.283Z,22.10
2022-08-27T03:59:20.181Z,22.09
2022-08-27T04:01:48.932Z,22.10
2022-08-27T04:04:17.374Z,22.07
2022-08-27T04:06:45.763Z,22.09
2022-08-27T04:09:15.598Z,22.07
2022-08-27T04:11:45.173Z,22.06
2022-08-27T04:14:20.698Z,22.05
2022-08-27T04:16:57.406Z,22.02
2022-08-27T04:19:28.589Z,22.02
2022-08-27T04:22:01.859Z,22.00
2022-08-27T04:24:33.689Z,21.99
2022-08-27T04:27:03.046Z,21.96
2022-08-27T04:29:31.821Z,21.96
2022-08-27T04:32:01.035Z,21.95
2022-08-27T04:34:29.418Z,21.93
2022-08-27T04:36:58.781Z,21.91
2022-08-27T04:39:29.224Z,21.89
2022-08-27T04:42:01.553Z,21.87
2022-08-27T04:44:33.323Z,21.86
2022-08-27T04:47:06.193Z,21.83
2022-08-27T04:49:34.885Z,21.82
2022-08-27T04:52:04.093Z,21.83
2022-08-27T04:54:33.810Z,21.82
2022-08-27T04:57:06.145Z,21.82
2022-08-27T04:59:36.363Z,21.81
2022-08-27T05:02:06.462Z,21.80
2022-08-27T05:04:37.681Z,21.81
2022-08-27T05:07:06.227Z,21.81
2022-08-27T05:09:35.473Z,21.82
2022-08-27T05:12:05.809Z,21.81
2022-08-27T05:14:34.131Z,21.83
2022-08-27T05:17:03.387Z,21.79
2022-08-27T05:19:32.131Z,21.77
2022-08-27T05:22:00.471Z,21.77
2022-08-27T05:24:28.916Z,21.74
2022-08-27T05:26:57.229Z,21.71
2022-08-27T05:29:26.960Z,21.73
2022-08-27T05:31:55.685Z,21.73
2022-08-27T05:34:25.414Z,21.76
2022-08-27T05:36:54.770Z,21.78
2022-08-27T05:39:23.227Z,21.80
2022-08-27T05:41:52.945Z,21.84
2022-08-27T05:47:11.333Z,21.91
2022-08-27T05:49:40.035Z,21.96
2022-08-27T05:52:11.433Z,22.01
2022-08-27T05:54:40.757Z,22.08
2022-08-27T05:57:09.155Z,22.15
2022-08-27T05:59:55.710Z,22.23
2022-08-27T06:02:25.561Z,22.31
2022-08-27T06:04:54.599Z,22.39
2022-08-27T06:07:23.107Z,22.46
2022-08-27T06:09:51.487Z,22.54
2022-08-27T06:12:20.003Z,22.59
2022-08-27T06:14:56.628Z,22.66
2022-08-27T06:17:26.330Z,22.72
2022-08-27T06:19:54.647Z,22.77
2022-08-27T06:22:23.105Z,22.83
2022-08-27T06:24:52.875Z,22.87
2022-08-27T06:27:21.836Z,22.92
2022-08-27T06:29:50.358Z,22.97
2022-08-27T06:32:19.971Z,23.01
2022-08-27T06:34:49.680Z,23.03
2022-08-27T06:37:18.090Z,23.07
2022-08-27T06:39:46.466Z,23.10
2022-08-27T06:42:15.016Z,23.13
2022-08-27T06:44:43.660Z,23.15
2022-08-27T06:47:13.057Z,23.17
2022-08-27T06:49:43.459Z,23.19
2022-08-27T06:52:16.225Z,23.21
2022-08-27T06:54:45.070Z,23.24
2022-08-27T06:57:13.444Z,23.24
2022-08-27T06:59:41.794Z,23.27
2022-08-27T07:02:10.162Z,23.29
2022-08-27T07:04:38.593Z,23.31
2022-08-27T07:07:08.107Z,23.33
2022-08-27T07:09:37.805Z,23.36
2022-08-27T07:12:07.714Z,23.38
2022-08-27T07:14:38.268Z,23.40
2022-08-27T07:17:11.239Z,23.44
2022-08-27T07:19:45.279Z,23.45
2022-08-27T07:22:14.081Z,23.47
2022-08-27T07:24:43.983Z,23.49
2022-08-27T07:27:12.409Z,23.54
2022-08-27T07:29:41.519Z,23.55
2022-08-27T07:32:09.850Z,23.58
2022-08-27T07:34:38.199Z,23.61
2022-08-27T07:37:06.655Z,23.65
2022-08-27T07:39:35.025Z,23.67
2022-08-27T07:42:22.147Z,23.71
2022-08-27T07:44:50.563Z,23.72
2022-08-27T07:47:19.077Z,23.75
2022-08-27T07:49:48.552Z,23.78
2022-08-27T07:52:17.323Z,23.80
2022-08-27T07:54:45.774Z,23.82
2022-08-27T07:57:15.463Z,23.85
2022-08-27T07:59:43.804Z,23.89
2022-08-27T08:02:12.838Z,23.90
2022-08-27T08:04:41.219Z,23.94
2022-08-27T08:07:09.582Z,23.96
2022-08-27T08:09:37.988Z,23.98
2022-08-27T08:12:07.748Z,23.99
2022-08-27T08:14:37.516Z,24.02
2022-08-27T08:17:06.455Z,24.04
2022-08-27T08:19:38.878Z,24.06
2022-08-27T08:22:07.274Z,24.08
2022-08-27T08:24:36.485Z,24.11
2022-08-27T08:27:07.437Z,24.15
2022-08-27T08:29:38.500Z,24.17
2022-08-27T08:32:08.531Z,24.21
2022-08-27T08:34:37.249Z,24.24
2022-08-27T08:37:07.004Z,24.29
2022-08-27T08:39:36.671Z,24.35
2022-08-27T08:42:08.710Z,24.42
2022-08-27T08:44:43.822Z,24.46
2022-08-27T08:47:19.414Z,24.54
2022-08-27T08:49:55.923Z,24.61
2022-08-27T08:52:40.294Z,24.68
2022-08-27T08:55:32.364Z,24.75
2022-08-27T08:58:15.212Z,24.83
2022-08-27T09:00:56.046Z,24.93
2022-08-27T09:03:25.383Z,25.06
2022-08-27T09:06:01.771Z,25.21
2022-08-27T09:08:41.068Z,25.34
2022-08-27T09:11:20.266Z,25.50
2022-08-27T09:13:51.903Z,25.62
2022-08-27T09:16:21.624Z,25.76
2022-08-27T09:18:52.434Z,25.90
2022-08-27T09:21:39.843Z,26.03
2022-08-27T09:24:15.973Z,26.17
2022-08-27T09:26:46.008Z,26.30
2022-08-27T09:29:22.493Z,26.49
2022-08-27T09:31:59.025Z,26.68
2022-08-27T09:34:35.403Z,26.88
2022-08-27T09:37:08.761Z,27.02
2022-08-27T09:39:51.586Z,27.18
2022-08-27T09:42:35.313Z,27.35
2022-08-27T09:45:08.698Z,27.54
2022-08-27T09:47:46.782Z,27.76
2022-08-27T09:50:19.830Z,27.95
2022-08-27T09:52:55.095Z,28.13
2022-08-27T09:55:39.063Z,28.32
2022-08-27T09:58:19.275Z,28.44
2022-08-27T10:00:49.359Z,28.53
2022-08-27T10:03:23.721Z,28.63
2022-08-27T10:05:54.232Z,28.76
2022-08-27T10:08:29.769Z,28.83
2022-08-27T10:11:01.324Z,28.91
2022-08-27T10:13:34.923Z,28.95
2022-08-27T10:16:52.618Z,28.88
2022-08-27T10:19:45.250Z,28.91
2022-08-27T10:22:27.549Z,28.90
2022-08-27T10:25:12.930Z,28.98
2022-08-27T10:27:51.855Z,29.05
2022-08-27T10:30:24.439Z,29.12
2022-08-27T10:33:04.717Z,29.23
2022-08-27T10:35:47.992Z,29.37
2022-08-27T10:38:25.091Z,29.52
2022-08-27T10:41:00.705Z,29.69
2022-08-27T10:43:53.717Z,29.82
2022-08-27T10:46:49.875Z,29.93
2022-08-27T10:49:31.307Z,30.00
2022-08-27T10:52:10.474Z,30.07
2022-08-27T10:54:43.329Z,30.10
2022-08-27T10:57:39.898Z,30.08
2022-08-27T11:00:14.591Z,30.04
2022-08-27T11:02:46.695Z,30.00
2022-08-27T11:05:20.896Z,29.95
2022-08-27T11:07:56.003Z,29.95
2022-08-27T11:10:29.718Z,29.96
2022-08-27T11:13:04.713Z,29.92
2022-08-27T11:15:36.609Z,29.95
2022-08-27T11:18:12.892Z,29.94
2022-08-27T11:20:49.562Z,29.91
2022-08-27T11:23:25.058Z,29.86
2022-08-27T11:25:59.583Z,29.86
2022-08-27T11:28:37.636Z,29.87
2022-08-27T11:31:14.659Z,29.95
2022-08-27T11:33:55.879Z,30.02
2022-08-27T11:37:06.490Z,30.14
2022-08-27T11:39:59.595Z,30.28
2022-08-27T11:42:38.345Z,30.41
2022-08-27T11:45:17.989Z,30.52
2022-08-27T11:47:54.420Z,30.61
2022-08-27T11:50:24.775Z,30.73
2022-08-27T11:53:00.867Z,30.79
2022-08-27T11:55:36.590Z,30.81
2022-08-27T11:58:10.991Z,30.85
2022-08-27T12:00:43.689Z,30.83
2022-08-27T12:03:29.643Z,30.87
2022-08-27T12:06:26.744Z,30.93
2022-08-27T12:09:07.558Z,30.95
2022-08-27T12:11:52.355Z,30.98
2022-08-27T12:14:40.296Z,31.02
2022-08-27T12:17:18.198Z,31.04
2022-08-27T12:20:06.598Z,31.09
2022-08-27T12:23:13.861Z,31.14
2022-08-27T12:25:42.459Z,31.25
2022-08-27T12:28:12.292Z,31.31
2022-08-27T12:30:50.283Z,31.39
2022-08-27T12:33:30.237Z,31.50
2022-08-27T12:36:07.328Z,31.56
2022-08-27T12:38:50.549Z,31.68
2022-08-27T12:41:28.603Z,31.73
2022-08-27T12:44:07.793Z,31.79
2022-08-27T12:46:46.989Z,31.81
2022-08-27T12:49:37.126Z,31.83
2022-08-27T12:52:33.927Z,31.78
2022-08-27T12:55:15.283Z,31.78
2022-08-27T12:57:51.655Z,31.79
2022-08-27T13:00:26.655Z,31.79
2022-08-27T13:03:25.112Z,31.84
2022-08-27T13:05:56.866Z,31.89
2022-08-27T13:08:29.890Z,31.93
2022-08-27T13:11:08.880Z,31.99
2022-08-27T13:13:41.095Z,32.08
2022-08-27T13:16:11.017Z,32.16
2022-08-27T13:18:39.807Z,32.22
2022-08-27T13:21:15.946Z,32.27
2022-08-27T13:23:46.576Z,32.33
2022-08-27T13:26:15.090Z,32.35
2022-08-27T13:28:44.682Z,32.39
2022-08-27T13:31:15.056Z,32.42
2022-08-27T13:33:44.295Z,32.46
2022-08-27T13:36:12.720Z,32.50
2022-08-27T13:38:49.897Z,32.55
2022-08-27T13:41:29.211Z,32.55
2022-08-27T13:43:59.481Z,32.60
2022-08-27T13:46:32.021Z,32.65
2022-08-27T13:49:01.561Z,32.69
2022-08-27T13:51:33.981Z,32.71
2022-08-27T13:54:14.467Z,32.70
2022-08-27T13:57:03.446Z,32.64
2022-08-27T13:59:33.185Z,32.56
2022-08-27T14:02:17.060Z,32.48
2022-08-27T14:04:48.190Z,32.35
2022-08-27T14:07:23.777Z,32.21
2022-08-27T14:09:55.806Z,32.10
2022-08-27T14:12:33.135Z,31.93
2022-08-27T14:15:16.866Z,31.78
2022-08-27T14:17:47.521Z,31.67
2022-08-27T14:20:17.904Z,31.55
2022-08-27T14:22:47.229Z,31.41
2022-08-27T14:25:16.811Z,31.27
2022-08-27T14:27:53.986Z,31.14
2022-08-27T14:30:29.686Z,31.01
2022-08-27T14:33:01.368Z,30.85
2022-08-27T14:35:31.281Z,30.70
2022-08-27T14:38:02.994Z,30.57
2022-08-27T14:40:33.050Z,30.45
2022-08-27T14:43:01.491Z,30.34
2022-08-27T14:45:29.969Z,30.23
2022-08-27T14:48:01.975Z,30.11
2022-08-27T14:50:30.893Z,29.99
2022-08-27T14:52:59.267Z,29.87
2022-08-27T14:55:27.791Z,29.73
2022-08-27T14:57:56.118Z,29.67
2022-08-27T15:00:24.566Z,29.57
2022-08-27T15:02:55.906Z,29.50
2022-08-27T15:05:27.383Z,29.41
2022-08-27T15:07:58.041Z,29.36
2022-08-27T15:10:27.185Z,29.27
2022-08-27T15:12:55.603Z,29.21
2022-08-27T15:15:24.096Z,29.14
2022-08-27T15:17:52.476Z,29.08
2022-08-27T15:20:21.400Z,29.02
2022-08-27T15:22:53.456Z,28.96
2022-08-27T15:25:22.979Z,28.92
2022-08-27T15:27:51.743Z,28.90
2022-08-27T15:30:27.222Z,28.88
2022-08-27T15:32:56.470Z,28.88
2022-08-27T15:35:29.006Z,28.85
2022-08-27T15:37:59.843Z,28.84
2022-08-27T15:40:32.995Z,28.86
2022-08-27T15:43:04.901Z,28.84
2022-08-27T15:45:34.512Z,28.85
2022-08-27T15:48:03.280Z,28.88
2022-08-27T15:50:34.353Z,28.88
2022-08-27T15:53:08.355Z,28.90
2022-08-27T15:55:39.707Z,28.88
2022-08-27T15:58:09.105Z,28.89
2022-08-27T16:00:38.729Z,28.89
2022-08-27T16:03:12.030Z,28.87
2022-08-27T16:05:43.022Z,28.87
2022-08-27T16:08:13.594Z,28.86
2022-08-27T16:10:42.126Z,28.85
2022-08-27T16:13:10.469Z,28.83
2022-08-27T16:15:41.727Z,28.81
2022-08-27T16:18:11.384Z,28.81
2022-08-27T16:20:41.390Z,28.80
2022-08-27T16:23:10.004Z,28.76
2022-08-27T16:25:40.393Z,28.72
2022-08-27T16:28:08.831Z,28.71
2022-08-27T16:30:37.289Z,28.70
2022-08-27T16:33:05.835Z,28.66
2022-08-27T16:35:34.210Z,28.66
2022-08-27T16:38:02.581Z,28.64
2022-08-27T16:40:31.232Z,28.60
2022-08-27T16:43:01.503Z,28.58
2022-08-27T16:45:29.985Z,28.57
2022-08-27T16:48:15.828Z,28.55
2022-08-27T16:50:44.481Z,28.52
2022-08-27T16:53:15.845Z,28.51
2022-08-27T16:55:46.837Z,28.49
2022-08-27T16:58:22.123Z,28.47
2022-08-27T17:00:53.147Z,28.46
2022-08-27T17:03:23.757Z,28.43
2022-08-27T17:05:52.624Z,28.43
2022-08-27T17:08:26.253Z,28.41
2022-08-27T17:10:56.976Z,28.40
2022-08-27T17:13:32.676Z,28.36
2022-08-27T17:16:01.880Z,28.37
2022-08-27T17:18:30.573Z,28.33
2022-08-27T17:21:02.245Z,28.30
2022-08-27T17:23:34.724Z,28.27
2022-08-27T17:26:04.597Z,28.25
2022-08-27T17:28:34.503Z,28.20
2022-08-27T17:31:04.398Z,28.16
2022-08-27T17:33:38.982Z,28.12
2022-08-27T17:36:08.899Z,28.09
2022-08-27T17:38:38.946Z,27.99
2022-08-27T17:41:13.173Z,27.98
2022-08-27T17:43:43.660Z,27.94
2022-08-27T17:46:13.715Z,27.90
2022-08-27T17:48:42.775Z,27.86
2022-08-27T17:51:13.385Z,27.82
2022-08-27T17:53:48.255Z,27.77
2022-08-27T17:56:18.680Z,27.72
2022-08-27T17:58:49.485Z,27.67
2022-08-27T18:01:28.187Z,27.60
2022-08-27T18:03:58.027Z,27.56
2022-08-27T18:06:28.019Z,27.50
2022-08-27T18:08:56.675Z,27.47
2022-08-27T18:11:25.768Z,27.40
2022-08-27T18:14:02.716Z,27.36
2022-08-27T18:16:33.756Z,27.31
2022-08-27T18:19:06.932Z,27.25
2022-08-27T18:21:36.213Z,27.20
2022-08-27T18:24:14.927Z,27.14
2022-08-27T18:26:43.853Z,27.09
2022-08-27T18:29:15.181Z,27.03
2022-08-27T18:31:44.815Z,27.00
2022-08-27T18:34:16.383Z,26.92
2022-08-27T18:36:47.261Z,26.88
2022-08-27T18:39:15.646Z,26.82
2022-08-27T18:41:45.206Z,26.77
2022-08-27T18:44:17.269Z,26.71
2022-08-27T18:46:46.811Z,26.65
2022-08-27T18:49:15.383Z,26.56
2022-08-27T18:51:49.264Z,26.46
2022-08-27T18:54:20.807Z,26.39
2022-08-27T18:56:49.755Z,26.32
2022-08-27T18:59:19.572Z,26.26
2022-08-27T19:01:48.334Z,26.20
2022-08-27T19:04:18.982Z,26.15
2022-08-27T19:06:48.208Z,26.07
2022-08-27T19:09:21.048Z,26.02
2022-08-27T19:11:51.521Z,25.98
2022-08-27T19:14:21.433Z,25.90
2022-08-27T19:16:55.849Z,25.86
2022-08-27T19:19:26.159Z,25.82
2022-08-27T19:21:54.905Z,25.77
2022-08-27T19:24:24.315Z,25.73
2022-08-27T19:26:53.378Z,25.68
2022-08-27T19:29:23.240Z,25.62
2022-08-27T19:31:51.768Z,25.58
2022-08-27T19:34:21.247Z,25.53
2022-08-27T19:36:49.753Z,25.51
2022-08-27T19:39:18.429Z,25.45
2022-08-27T19:41:46.859Z,25.43
2022-08-27T19:44:15.253Z,25.39
2022-08-27T19:46:45.183Z,25.35
2022-08-27T19:49:13.577Z,25.33
2022-08-27T19:51:42.000Z,25.29
2022-08-27T19:54:10.573Z,25.25
2022-08-27T19:56:38.973Z,25.21
2022-08-27T19:59:21.024Z,25.19
2022-08-27T20:01:52.850Z,25.14
2022-08-27T20:04:21.882Z,25.12
2022-08-27T20:06:50.726Z,25.08
2022-08-27T20:09:21.344Z,25.05
2022-08-27T20:11:50.606Z,25.03
2022-08-27T20:14:19.968Z,25.00
2022-08-27T20:16:50.380Z,24.97
2022-08-27T20:19:20.038Z,24.95
2022-08-27T20:21:48.339Z,24.91
2022-08-27T20:24:16.707Z,24.87
2022-08-27T20:26:45.383Z,24.84
2022-08-27T20:29:15.092Z,24.80
2022-08-27T20:32:02.284Z,24.77
2022-08-27T20:34:32.496Z,24.73
2022-08-27T20:37:02.550Z,24.70
2022-08-27T20:39:30.894Z,24.69
2022-08-27T20:41:59.719Z,24.67
2022-08-27T20:44:28.156Z,24.62
2022-08-27T20:47:01.423Z,24.59
2022-08-27T20:49:30.813Z,24.55
2022-08-27T20:52:03.638Z,24.54
2022-08-27T20:54:33.869Z,24.50
2022-08-27T20:57:02.890Z,24.47
2022-08-27T20:59:48.902Z,24.45
2022-08-27T21:02:23.819Z,24.38
2022-08-27T21:04:53.021Z,24.37
2022-08-27T21:07:24.193Z,24.32
2022-08-27T21:09:57.117Z,24.31
2022-08-27T21:12:26.864Z,24.27
2022-08-27T21:14:56.675Z,24.25
2022-08-27T21:17:29.955Z,24.22
2022-08-27T21:19:58.512Z,24.19
2022-08-27T21:22:27.258Z,24.16
2022-08-27T21:24:56.433Z,24.14
2022-08-27T21:27:24.859Z,24.13
2022-08-27T21:29:53.551Z,24.09
2022-08-27T21:32:22.195Z,24.06
2022-08-27T21:34:52.173Z,24.04
2022-08-27T21:37:20.672Z,24.01
2022-08-27T21:39:49.104Z,23.99
2022-08-27T21:42:17.578Z,23.97
2022-08-27T21:44:46.001Z,23.95
2022-08-27T21:47:14.712Z,23.94
2022-08-27T21:49:43.047Z,23.92
2022-08-27T21:52:12.860Z,23.88
2022-08-27T21:54:43.595Z,23.86
2022-08-27T21:57:15.583Z,23.84
2022-08-27T21:59:48.567Z,23.81
2022-08-27T22:02:38.619Z,23.79
2022-08-27T22:05:08.718Z,23.76
2022-08-27T22:07:39.218Z,23.73
2022-08-27T22:10:08.866Z,23.71
2022-08-27T22:12:37.318Z,23.70
2022-08-27T22:15:08.654Z,23.67
2022-08-27T22:17:37.472Z,23.67
2022-08-27T22:20:10.422Z,23.64
2022-08-27T22:22:40.144Z,23.64
2022-08-27T22:25:09.651Z,23.62
2022-08-27T22:27:38.864Z,23.60
2022-08-27T22:30:11.311Z,23.59
2022-08-27T22:32:40.910Z,23.58
2022-08-27T22:35:11.341Z,23.57
2022-08-27T22:37:41.887Z,23.56
2022-08-27T22:40:19.530Z,23.54
2022-08-27T22:42:48.658Z,23.55
2022-08-27T22:45:18.238Z,23.54
2022-08-27T22:47:47.706Z,23.54
2022-08-27T22:50:16.560Z,23.52
2022-08-27T22:52:47.750Z,23.51
2022-08-27T22:55:19.467Z,23.50
2022-08-27T22:57:48.291Z,23.49
2022-08-27T23:00:21.702Z,23.48
2022-08-27T23:02:50.195Z,23.48
2022-08-27T23:05:19.019Z,23.47
2022-08-27T23:07:49.833Z,23.45
2022-08-27T23:10:22.658Z,23.42
2022-08-27T23:12:53.710Z,23.41
2022-08-27T23:15:25.220Z,23.39
2022-08-27T23:17:53.910Z,23.38
2022-08-27T23:20:24.397Z,23.37
2022-08-27T23:22:55.602Z,23.36
2022-08-27T23:25:44.573Z,23.35
2022-08-27T23:28:15.192Z,23.32
2022-08-27T23:30:45.414Z,23.29
2022-08-27T23:33:14.487Z,23.28
2022-08-27T23:35:48.007Z,23.26
2022-08-27T23:38:19.540Z,23.27
2022-08-27T23:40:49.439Z,23.24
2022-08-27T23:43:18.570Z,23.23
2022-08-27T23:45:47.746Z,23.21
2022-08-27T23:48:16.103Z,23.19
2022-08-27T23:50:44.770Z,23.18
2022-08-27T23:53:14.747Z,23.16
2022-08-27T23:55:44.529Z,23.18
2022-08-27T23:58:13.123Z,23.17
